Simbrief Flight Plan

Flight Plan Options
Generated Flight Plan
Copies the generated flight plan to your device clipboard. Go to Infinite Flight, go to the map, press on the search box, long press in the popup text box and select paste, press ok.

Copies the URL to your clipboard for sharing.
  
Please login in order to save your plan to fpltoif.

Flight Plan Summary

  Departure Arrival
Airport Code KBHB CYYR
Elevation 83 160
Planned Runway 22 34
Current Weather 2019/07/22 22:56
KBHB 222256Z AUTO 00000KT 10SM FEW075 BKN100 BKN120 21/14 A2988 RMK AO2 RAB38E51 SLP119 P0000 T02110144
2019/07/22 23:00
CYYR 222300Z 04005KT 15SM FEW010 FEW029 FEW040TCU SCT058 BKN079 16/13 A2973 RMK SF1CF2TCU1SC2AC2 SH DIST NW AND N SLP069
SID/STAR (SID) (STAR)
Aircraft TBM 900
Flight Level 29,000
Plan Distance 719 NM
Flight Time 2:42
Block Fuel 797
V-Speeds (KIAS) V1=    VR=    V2=
V-Speeds are not available with certain aircraft. When using Simbrief Classic, please change plan fomat to JBU
Climb Profile 170/40
Descent Profile 2000FPM
Passenger Count 5
Cargo Weight 0
Notes
System Remarks

Flight Plan Details

Waypoint
Stage
Status
IF FPL
Altitude
Airspeed
Mach Speed
VS to Next
Rem Dist
Delete
WPT
Add SID/STAR Waypoints

You can automatically add published SID/STARs into your plan. Select the SID and/or STAR you wish and press the insert button. The recommended SID/STAR for the runway is shown as a guide. Not all airports have SID/STARs available. SID/STAR waypoints that are already in the genereated plan will be ignored.

Due to different versions between SimBrief and the SID/STAR source names may not match 100%. For example, JASPA5 may be the same as JASPA7 if 5 does not exist.

Select SID
Recommended:
22
Select STAR
Recommended:
34
 
Add Waypoints
Enter in your waypoint, press validate. The system will identify if there are duplicates in the world and show you a list of available waypoints. Select the one you wish to add and which waypoint to add it after.
Search for Waypoint
Select Waypoint
Add after:
 
Airport Diagrams
Airport diagram availability may be limited to North America only.
KBHB
CYYR
Route Map
Vertical Profile Map

This flight plan is for the use in ForeFlight.

ForeFlight Compatible Plan